Time;durP1;ratioP1;P1;durP2;ratioP2;P2;SDS_P1;SDS_P2;PMS_P1;PMS_P2;Temp;Humidity;BMP_temperature;BMP_pressure;BME280_temperature;BME280_humidity;BME280_pressure;Samples;Min_cycle;Max_cycle;Signal;HPM_P1;HPM_P2
2021/09/13 08:54:04;;;;;;;4.00;2.80;;;21.30;99.90;;;;;;6275709;22;20187;-75
2021/09/13 08:56:38;;;;;;;5.57;2.75;;;21.30;99.90;;;;;;6278301;22;20501;-77
2021/09/13 08:59:07;;;;;;;4.28;2.47;;;21.50;99.90;;;;;;6278052;22;20232;-72
2021/09/13 09:01:33;;;;;;;9.43;3.03;;;21.60;99.90;;;;;;6277846;22;20182;-74
2021/09/13 09:04:03;;;;;;;5.47;2.83;;;21.50;99.90;;;;;;6278145;22;20217;-74
2021/09/13 09:06:35;;;;;;;5.43;2.72;;;21.30;99.90;;;;;;6277835;22;20214;-71
2021/09/13 09:09:06;;;;;;;6.97;3.30;;;21.30;99.90;;;;;;6277921;22;20175;-74
2021/09/13 09:11:59;;;;;;;7.47;3.20;;;21.30;99.90;;;;;;6277522;22;20269;-75
2021/09/13 09:14:29;;;;;;;4.65;2.70;;;21.20;99.90;;;;;;6277897;22;20260;-72
2021/09/13 09:16:57;;;;;;;5.45;2.83;;;21.40;99.90;;;;;;6277938;22;20181;-72
2021/09/13 09:19:24;;;;;;;7.18;3.50;;;21.30;99.90;;;;;;6277272;22;20677;-74
2021/09/13 09:21:51;;;;;;;6.30;3.45;;;21.30;99.90;;;;;;6277550;22;20181;-72
2021/09/13 09:24:19;;;;;;;5.88;3.58;;;21.00;99.90;;;;;;6277869;22;20179;-71
2021/09/13 09:27:04;;;;;;;7.78;3.65;;;21.00;99.90;;;;;;6277483;22;20175;-71
2021/09/13 09:29:34;;;;;;;7.18;3.42;;;20.90;99.90;;;;;;6271646;22;20202;-73
2021/09/13 09:32:02;;;;;;;7.75;4.22;;;20.60;99.90;;;;;;6276156;22;20932;-74
2021/09/13 09:34:33;;;;;;;7.68;3.70;;;20.50;99.90;;;;;;6274774;22;20567;-71
2021/09/13 09:37:09;;;;;;;7.15;3.42;;;20.60;99.90;;;;;;6277338;22;20202;-72
2021/09/13 09:39:40;;;;;;;5.82;3.08;;;20.90;99.90;;;;;;6275328;22;20254;-74
2021/09/13 09:42:11;;;;;;;7.18;3.22;;;20.90;99.90;;;;;;6276805;22;20199;-73
2021/09/13 09:44:44;;;;;;;7.45;2.95;;;20.70;99.90;;;;;;6276185;22;20236;-81
2021/09/13 09:47:13;;;;;;;7.32;3.63;;;20.90;99.90;;;;;;6276576;22;20205;-71
2021/09/13 09:49:42;;;;;;;10.27;3.15;;;20.90;99.90;;;;;;6277993;22;20202;-73
2021/09/13 09:52:10;;;;;;;4.07;2.83;;;20.60;99.90;;;;;;6277278;22;20175;-72
2021/09/13 09:54:38;;;;;;;6.32;3.17;;;20.50;99.90;;;;;;6276461;22;20202;-71
2021/09/13 09:57:07;;;;;;;6.88;3.25;;;20.40;99.90;;;;;;6276851;22;20175;-71
2021/09/13 09:59:35;;;;;;;5.80;3.40;;;20.40;99.90;;;;;;6276860;22;20201;-70
2021/09/13 10:02:13;;;;;;;7.40;3.47;;;20.20;99.90;;;;;;6276605;22;20497;-70
2021/09/13 10:04:40;;;;;;;8.25;3.85;;;20.10;99.90;;;;;;6276442;22;20696;-70
2021/09/13 10:07:07;;;;;;;10.13;3.10;;;20.30;99.90;;;;;;6276484;22;20500;-71
2021/09/13 10:09:34;;;;;;;4.68;3.30;;;20.50;99.90;;;;;;6276116;22;20201;-70
2021/09/13 10:12:05;;;;;;;5.22;3.20;;;20.70;99.90;;;;;;6273573;22;20178;-72
2021/09/13 10:14:33;;;;;;;7.22;3.90;;;20.80;99.90;;;;;;6276699;22;20199;-71
2021/09/13 10:17:00;;;;;;;8.30;4.13;;;20.80;99.90;;;;;;6276296;22;20175;-70
2021/09/13 10:19:30;;;;;;;6.07;3.65;;;20.60;99.90;;;;;;6276235;22;20201;-69
2021/09/13 10:21:58;;;;;;;7.32;3.92;;;20.70;99.90;;;;;;6270292;22;20201;-73
2021/09/13 10:24:28;;;;;;;6.57;3.60;;;20.70;99.90;;;;;;6274215;22;20257;-75
2021/09/13 10:26:59;;;;;;;8.95;4.47;;;20.60;99.90;;;;;;6274828;22;20178;-74
2021/09/13 10:29:28;;;;;;;7.32;3.92;;;20.50;99.90;;;;;;6273403;22;20507;-74
2021/09/13 10:32:14;;;;;;;6.18;3.60;;;20.60;99.90;;;;;;6274563;22;20261;-73
2021/09/13 10:34:50;;;;;;;6.68;3.70;;;20.90;99.90;;;;;;6274330;22;20207;-71
2021/09/13 10:37:19;;;;;;;8.15;4.10;;;20.70;99.90;;;;;;6274380;22;20174;-73
2021/09/13 10:39:55;;;;;;;7.03;3.83;;;21.10;99.90;;;;;;6274332;22;20199;-75
2021/09/13 10:42:41;;;;;;;6.65;4.20;;;21.10;99.90;;;;;;6274337;22;20181;-72
2021/09/13 10:45:13;;;;;;;7.32;3.80;;;21.20;99.90;;;;;;6274292;22;20178;-71
2021/09/13 10:47:41;;;;;;;5.47;3.72;;;21.30;99.90;;;;;;6274001;22;20637;-71
2021/09/13 10:50:34;;;;;;;6.68;3.25;;;21.30;99.90;;;;;;6274199;22;20205;-71
2021/09/13 10:53:02;;;;;;;6.32;3.25;;;21.30;99.90;;;;;;6274618;22;20181;-72
2021/09/13 10:55:38;;;;;;;7.65;3.83;;;21.20;99.90;;;;;;6274442;22;20207;-72
2021/09/13 10:58:09;;;;;;;6.93;3.75;;;21.00;99.90;;;;;;6273442;22;20192;-71
2021/09/13 11:01:03;;;;;;;6.30;2.72;;;21.10;99.90;;;;;;6273863;22;20672;-75
2021/09/13 11:03:32;;;;;;;6.97;2.83;;;20.90;99.90;;;;;;6273920;22;20182;-73
2021/09/13 11:06:18;;;;;;;4.30;2.88;;;20.80;99.90;;;;;;6273644;22;20175;-71
2021/09/13 11:08:46;;;;;;;5.70;2.90;;;20.80;99.90;;;;;;6254063;22;20181;-72
2021/09/13 11:11:15;;;;;;;6.22;3.05;;;21.20;99.90;;;;;;6269927;22;20221;-75
2021/09/13 11:13:44;;;;;;;5.50;3.13;;;21.20;99.90;;;;;;6274374;22;20179;-73
2021/09/13 11:16:17;;;;;;;4.65;2.83;;;21.00;99.90;;;;;;6274051;22;20257;-75
2021/09/13 11:18:45;;;;;;;5.22;2.83;;;21.10;99.90;;;;;;6273472;22;20179;-75
2021/09/13 11:21:18;;;;;;;5.93;2.95;;;21.10;99.90;;;;;;6274063;22;20285;-77
2021/09/13 11:23:46;;;;;;;5.28;2.97;;;21.10;99.90;;;;;;6274689;22;20849;-73
2021/09/13 11:26:13;;;;;;;6.03;2.95;;;21.10;99.90;;;;;;6273668;22;20261;-77
2021/09/13 11:28:57;;;;;;;5.68;2.80;;;21.10;99.90;;;;;;6274242;22;20175;-79
2021/09/13 11:31:34;;;;;;;6.43;3.00;;;21.20;99.90;;;;;;6274646;22;20205;-78
2021/09/13 11:34:04;;;;;;;5.45;2.92;;;21.30;99.90;;;;;;6274179;22;20178;-80
2021/09/13 11:36:32;;;;;;;5.05;3.30;;;21.20;99.90;;;;;;6270275;22;20210;-75
2021/09/13 11:39:02;;;;;;;4.95;3.00;;;21.10;99.90;;;;;;6272819;22;20213;-74
2021/09/13 11:41:29;;;;;;;5.88;3.47;;;21.20;99.90;;;;;;6273507;22;20566;-73
2021/09/13 11:44:06;;;;;;;3.72;2.60;;;21.30;99.90;;;;;;6274222;22;20179;-74
2021/09/13 11:46:51;;;;;;;4.82;2.90;;;21.30;99.90;;;;;;6274171;22;20257;-72
2021/09/13 11:49:21;;;;;;;3.63;2.42;;;21.20;99.90;;;;;;6272756;22;20233;-72
2021/09/13 11:51:59;;;;;;;5.80;2.83;;;21.30;99.90;;;;;;6273991;22;20175;-76
2021/09/13 11:54:26;;;;;;;4.60;2.53;;;21.50;99.90;;;;;;6273890;22;20186;-74
2021/09/13 11:56:53;;;;;;;3.83;2.50;;;21.60;99.90;;;;;;6273267;22;20207;-76
2021/09/13 11:59:21;;;;;;;5.43;2.90;;;21.60;99.90;;;;;;6273945;22;20181;-76
2021/09/13 12:02:00;;;;;;;6.68;2.55;;;21.40;99.90;;;;;;6273997;22;20178;-76
2021/09/13 12:04:28;;;;;;;5.35;3.10;;;21.50;99.90;;;;;;6273704;22;20185;-76
2021/09/13 12:07:06;;;;;;;4.72;2.92;;;21.50;99.90;;;;;;6273877;22;20179;-77
2021/09/13 12:09:33;;;;;;;4.72;2.70;;;21.50;99.90;;;;;;6273454;22;20691;-75
2021/09/13 12:12:00;;;;;;;4.03;2.65;;;21.50;99.90;;;;;;6273718;22;20181;-77
2021/09/13 12:14:28;;;;;;;3.40;2.72;;;21.50;99.90;;;;;;6273883;22;20185;-78
2021/09/13 12:17:08;;;;;;;3.67;2.40;;;21.60;99.90;;;;;;6273654;22;20525;-82
2021/09/13 12:19:35;;;;;;;4.43;2.35;;;21.60;99.90;;;;;;6273737;22;20684;-75
2021/09/13 12:22:04;;;;;;;4.20;2.20;;;21.60;99.90;;;;;;6274861;22;20174;-78
2021/09/13 12:24:31;;;;;;;3.47;2.00;;;22.00;99.90;;;;;;6275034;22;20179;-78
2021/09/13 12:26:58;;;;;;;3.33;1.80;;;22.00;99.90;;;;;;6275180;22;20175;-76
2021/09/13 12:29:25;;;;;;;2.75;1.58;;;22.20;99.90;;;;;;6275762;22;20209;-77
2021/09/13 12:31:51;;;;;;;3.22;1.88;;;22.10;99.90;;;;;;6276723;22;20182;-78
2021/09/13 12:34:20;;;;;;;3.97;2.33;;;22.30;99.90;;;;;;6277111;22;20178;-79
2021/09/13 12:36:46;;;;;;;4.35;2.05;;;22.20;99.90;;;;;;6277197;22;20202;-77
2021/09/13 12:39:13;;;;;;;5.15;2.10;;;22.20;99.90;;;;;;6277445;22;20174;-77
2021/09/13 12:41:42;;;;;;;3.15;2.17;;;22.10;99.90;;;;;;6277676;22;20181;-75
2021/09/13 12:44:17;;;;;;;2.50;1.85;;;22.10;99.90;;;;;;6277339;22;20186;-78
2021/09/13 12:46:47;;;;;;;2.88;2.13;;;22.20;99.90;;;;;;6277708;22;20178;-76
2021/09/13 12:49:14;;;;;;;3.88;2.30;;;22.40;99.90;;;;;;6277322;22;20185;-77
2021/09/13 12:51:53;;;;;;;7.88;3.15;;;22.40;99.90;;;;;;6277452;22;20475;-78
2021/09/13 12:54:28;;;;;;;3.47;2.40;;;22.30;99.90;;;;;;6277368;22;20265;-79
2021/09/13 12:56:55;;;;;;;3.72;2.25;;;22.30;99.90;;;;;;6277144;22;20210;-78
2021/09/13 12:59:22;;;;;;;4.50;2.10;;;22.50;99.90;;;;;;6277688;22;20174;-77
2021/09/13 13:01:49;;;;;;;3.10;2.03;;;22.60;99.90;;;;;;6277481;22;20175;-76
2021/09/13 13:04:18;;;;;;;4.90;2.83;;;22.90;99.90;;;;;;6276959;22;20179;-76
2021/09/13 13:06:47;;;;;;;5.18;2.65;;;22.90;99.90;;;;;;6274891;22;20179;-78
2021/09/13 13:09:18;;;;;;;4.90;2.60;;;22.90;99.90;;;;;;6277101;22;20183;-77
2021/09/13 13:11:45;;;;;;;5.68;2.67;;;22.90;99.90;;;;;;6277832;22;20179;-76
2021/09/13 13:14:12;;;;;;;6.07;2.78;;;22.50;99.90;;;;;;6276940;22;20178;-76
2021/09/13 13:16:40;;;;;;;4.07;2.47;;;22.40;99.90;;;;;;6277029;22;20213;-75
2021/09/13 13:19:09;;;;;;;3.75;2.53;;;22.20;99.90;;;;;;6277040;22;20182;-76
2021/09/13 13:21:38;;;;;;;3.58;2.33;;;22.20;99.90;;;;;;6277199;22;20185;-77
2021/09/13 13:24:07;;;;;;;4.40;2.70;;;22.00;99.90;;;;;;6277259;22;20178;-76
2021/09/13 13:26:35;;;;;;;4.53;2.72;;;21.90;99.90;;;;;;6277066;22;20175;-77
2021/09/13 13:29:02;;;;;;;5.03;3.00;;;21.90;99.90;;;;;;6277541;22;20174;-74
2021/09/13 13:31:29;;;;;;;4.95;3.05;;;21.90;99.90;;;;;;6274257;22;20471;-70
2021/09/13 13:33:55;;;;;;;4.05;2.70;;;22.00;99.90;;;;;;6277612;22;20197;-74
2021/09/13 13:36:22;;;;;;;4.97;2.53;;;22.10;99.90;;;;;;6276868;22;20337;-72
2021/09/13 13:38:49;;;;;;;5.80;3.15;;;22.40;99.90;;;;;;6276810;22;20228;-71
2021/09/13 13:41:18;;;;;;;7.65;3.35;;;22.40;99.90;;;;;;6274487;22;20677;-71
2021/09/13 13:43:44;;;;;;;5.43;3.08;;;22.50;99.90;;;;;;6273976;22;20181;-72
2021/09/13 13:46:11;;;;;;;5.50;3.20;;;22.30;99.90;;;;;;6275067;22;20179;-72
2021/09/13 13:48:38;;;;;;;5.18;3.22;;;22.10;99.90;;;;;;6276806;22;20255;-72
2021/09/13 13:51:05;;;;;;;7.00;3.22;;;21.90;99.90;;;;;;6277453;22;20202;-72
2021/09/13 13:53:32;;;;;;;5.80;3.17;;;21.90;99.90;;;;;;6276838;22;20232;-74
2021/09/13 13:55:58;;;;;;;7.15;3.70;;;21.90;99.90;;;;;;6276343;22;20202;-75
2021/09/13 13:58:26;;;;;;;4.10;3.10;;;22.10;99.90;;;;;;6277220;22;20190;-74
2021/09/13 14:00:54;;;;;;;4.50;2.80;;;22.10;99.90;;;;;;6271438;22;20205;-73
2021/09/13 14:03:21;;;;;;;5.25;2.85;;;22.20;99.90;;;;;;6276057;22;20179;-73
2021/09/13 14:05:48;;;;;;;6.13;3.75;;;22.30;99.90;;;;;;6275430;22;20182;-74
2021/09/13 14:08:15;;;;;;;8.00;3.58;;;22.10;99.90;;;;;;6275228;22;20228;-79
2021/09/13 14:10:42;;;;;;;6.20;3.20;;;21.90;99.90;;;;;;6274647;22;20201;-75
2021/09/13 14:13:09;;;;;;;4.82;3.10;;;22.00;99.90;;;;;;6274844;22;20606;-75
2021/09/13 14:15:37;;;;;;;6.45;3.35;;;21.90;99.90;;;;;;6274678;22;20202;-72
2021/09/13 14:18:05;;;;;;;10.25;4.25;;;21.80;99.90;;;;;;6275107;22;20553;-73
2021/09/13 14:20:32;;;;;;;4.63;2.97;;;22.00;99.90;;;;;;6275148;22;20230;-74
2021/09/13 14:22:59;;;;;;;5.53;3.45;;;22.10;99.90;;;;;;6273558;22;20609;-72
2021/09/13 14:25:26;;;;;;;5.30;2.90;;;22.10;99.90;;;;;;6275085;22;20262;-73
2021/09/13 14:27:53;;;;;;;5.88;3.30;;;21.90;99.90;;;;;;6275284;22;20290;-74
2021/09/13 14:30:20;;;;;;;5.75;3.10;;;21.90;99.90;;;;;;6273975;22;20201;-74
2021/09/13 14:32:48;;;;;;;6.03;4.00;;;21.90;99.90;;;;;;6275000;22;20178;-73
2021/09/13 14:35:15;;;;;;;6.57;4.20;;;21.90;99.90;;;;;;6275045;22;20513;-73
2021/09/13 14:37:41;;;;;;;5.43;3.85;;;21.80;99.90;;;;;;6274185;22;20636;-72
2021/09/13 14:40:10;;;;;;;4.90;3.35;;;21.70;99.90;;;;;;6276146;22;20277;-72
2021/09/13 14:42:36;;;;;;;4.80;3.20;;;21.80;99.90;;;;;;6277030;22;20210;-72
2021/09/13 14:45:04;;;;;;;4.32;3.05;;;21.90;99.90;;;;;;6276409;22;20175;-72
2021/09/13 14:47:30;;;;;;;3.90;2.85;;;21.90;99.90;;;;;;6276538;22;20179;-73
2021/09/13 14:50:01;;;;;;;6.00;3.67;;;21.80;99.90;;;;;;6276797;22;20195;-72
2021/09/13 14:52:28;;;;;;;7.22;4.38;;;21.80;99.90;;;;;;6276211;22;20178;-73
2021/09/13 14:54:55;;;;;;;5.18;3.72;;;21.60;99.90;;;;;;6276137;22;20186;-73
2021/09/13 14:57:22;;;;;;;5.95;3.30;;;21.80;99.90;;;;;;6276409;22;20207;-73
2021/09/13 14:59:49;;;;;;;5.93;3.70;;;21.80;99.90;;;;;;6276407;22;20221;-73
2021/09/13 15:02:15;;;;;;;8.40;3.90;;;21.60;99.90;;;;;;6276855;22;20175;-72
2021/09/13 15:04:42;;;;;;;5.95;3.80;;;21.70;99.90;;;;;;6278205;22;20174;-73
2021/09/13 15:07:10;;;;;;;7.50;4.10;;;21.70;99.90;;;;;;6276662;22;20185;-73
2021/09/13 15:09:37;;;;;;;5.30;3.60;;;21.70;99.90;;;;;;6276762;22;20514;-73
2021/09/13 15:12:04;;;;;;;4.45;3.20;;;21.60;99.90;;;;;;6276600;22;20206;-73
2021/09/13 15:14:31;;;;;;;6.13;3.75;;;21.60;99.90;;;;;;6276925;22;20262;-72
2021/09/13 15:16:58;;;;;;;5.68;3.42;;;21.50;99.90;;;;;;6276598;22;20289;-73
2021/09/13 15:19:24;;;;;;;5.03;3.35;;;21.60;99.90;;;;;;6276187;22;20202;-73
2021/09/13 15:21:51;;;;;;;5.82;4.03;;;21.70;99.90;;;;;;6275828;22;20181;-73
2021/09/13 15:24:19;;;;;;;7.65;4.20;;;21.60;99.90;;;;;;6275953;22;20649;-73
2021/09/13 15:26:46;;;;;;;6.95;3.75;;;21.60;99.90;;;;;;6275996;22;20724;-73
2021/09/13 15:29:13;;;;;;;5.53;3.65;;;21.40;99.90;;;;;;6276492;22;20185;-72
2021/09/13 15:31:40;;;;;;;6.50;4.07;;;21.50;99.90;;;;;;6276065;22;20175;-73
2021/09/13 15:34:07;;;;;;;5.70;3.90;;;21.40;99.90;;;;;;6276126;22;20181;-73
2021/09/13 15:36:33;;;;;;;4.95;3.65;;;21.40;99.90;;;;;;6275641;22;20204;-74
2021/09/13 15:39:00;;;;;;;8.40;4.22;;;21.50;99.90;;;;;;6276084;22;20719;-74
2021/09/13 15:41:28;;;;;;;9.25;4.35;;;21.50;99.90;;;;;;6275687;22;20199;-72
2021/09/13 15:43:55;;;;;;;6.43;4.10;;;21.50;99.90;;;;;;6276163;22;20261;-73
2021/09/13 15:46:23;;;;;;;7.93;3.97;;;21.60;99.90;;;;;;6275889;22;20178;-72
2021/09/13 15:48:50;;;;;;;7.07;4.40;;;21.60;99.90;;;;;;6276343;22;20179;-73
2021/09/13 15:51:17;;;;;;;6.03;4.40;;;21.60;99.90;;;;;;6275476;22;20691;-72
2021/09/13 15:53:44;;;;;;;7.45;4.13;;;21.40;99.90;;;;;;6275954;22;20182;-73
2021/09/13 15:56:12;;;;;;;7.85;4.00;;;21.40;99.90;;;;;;6275709;22;20209;-73
2021/09/13 15:58:40;;;;;;;6.68;4.18;;;21.40;99.90;;;;;;6276461;22;20221;-72
2021/09/13 16:01:07;;;;;;;5.68;3.53;;;21.40;99.90;;;;;;6276165;22;20644;-73
2021/09/13 16:03:34;;;;;;;5.00;3.50;;;21.50;99.90;;;;;;6276473;22;20202;-73
2021/09/13 16:06:01;;;;;;;6.53;4.10;;;21.50;99.90;;;;;;6276823;22;20175;-72
2021/09/13 16:08:27;;;;;;;5.93;3.80;;;21.50;99.90;;;;;;6278157;22;20179;-73
2021/09/13 16:10:55;;;;;;;9.38;4.07;;;21.50;99.90;;;;;;6275205;22;20728;-71
2021/09/13 16:13:22;;;;;;;5.82;3.70;;;21.40;99.90;;;;;;6277917;22;20175;-72
2021/09/13 16:15:50;;;;;;;7.75;4.03;;;21.30;99.90;;;;;;6278158;22;20175;-70
2021/09/13 16:18:17;;;;;;;6.22;3.88;;;21.20;99.90;;;;;;6278037;22;20206;-71
2021/09/13 16:20:44;;;;;;;6.15;4.10;;;21.30;99.90;;;;;;6277563;22;20268;-72
2021/09/13 16:23:12;;;;;;;8.10;4.20;;;21.30;99.90;;;;;;6278057;22;20175;-72
2021/09/13 16:25:42;;;;;;;5.68;4.07;;;21.20;99.90;;;;;;6278042;22;20228;-72
2021/09/13 16:28:09;;;;;;;5.57;3.63;;;21.10;99.90;;;;;;6277554;22;20193;-72
2021/09/13 16:30:36;;;;;;;6.15;3.92;;;21.20;99.90;;;;;;6276766;22;20657;-72
2021/09/13 16:33:04;;;;;;;5.97;3.90;;;21.10;99.90;;;;;;6277464;22;20470;-72
2021/09/13 16:35:31;;;;;;;8.85;4.15;;;21.10;99.90;;;;;;6277735;22;20258;-72
2021/09/13 16:37:58;;;;;;;5.63;3.95;;;21.10;99.90;;;;;;6277693;22;20206;-72
2021/09/13 16:40:25;;;;;;;6.22;3.55;;;21.10;99.90;;;;;;6277349;22;20194;-72
2021/09/13 16:42:52;;;;;;;9.27;3.92;;;21.00;99.90;;;;;;6277506;22;20179;-72
2021/09/13 16:45:18;;;;;;;6.93;3.65;;;21.00;99.90;;;;;;6277399;22;20178;-70
2021/09/13 16:47:45;;;;;;;5.65;3.63;;;21.00;99.90;;;;;;6277309;22;20496;-72
2021/09/13 16:50:14;;;;;;;7.00;3.60;;;21.00;99.90;;;;;;6277659;22;20194;-72
2021/09/13 16:52:41;;;;;;;5.32;3.72;;;21.00;99.90;;;;;;6277630;22;20232;-72
2021/09/13 16:55:09;;;;;;;5.82;3.40;;;21.20;99.90;;;;;;6277529;22;20187;-72
2021/09/13 16:57:35;;;;;;;7.75;3.95;;;21.30;99.90;;;;;;6277639;22;20213;-71
2021/09/13 17:00:03;;;;;;;6.53;3.45;;;21.30;99.90;;;;;;6277497;22;20682;-71
2021/09/13 17:02:30;;;;;;;5.68;3.67;;;21.20;99.90;;;;;;6277445;22;20185;-70
2021/09/13 17:04:57;;;;;;;4.57;3.58;;;21.10;99.90;;;;;;6277589;22;20622;-71
2021/09/13 17:07:25;;;;;;;4.00;3.45;;;20.80;99.90;;;;;;6276802;22;20505;-72
2021/09/13 17:09:52;;;;;;;6.95;3.45;;;20.80;99.90;;;;;;6277502;22;20195;-72
2021/09/13 17:12:18;;;;;;;5.78;3.67;;;20.80;99.90;;;;;;6277431;22;20175;-71
2021/09/13 17:14:45;;;;;;;5.60;3.65;;;20.80;99.90;;;;;;6277582;22;20174;-72
2021/09/13 17:17:12;;;;;;;6.38;3.72;;;20.90;99.90;;;;;;6277118;22;20209;-72
2021/09/13 17:19:39;;;;;;;6.03;3.28;;;21.00;99.90;;;;;;6277437;22;20194;-72
2021/09/13 17:22:06;;;;;;;5.80;4.15;;;21.00;99.90;;;;;;6277559;22;20175;-72
2021/09/13 17:24:34;;;;;;;5.20;3.15;;;20.70;99.90;;;;;;6277225;22;20181;-72
2021/09/13 17:27:01;;;;;;;5.45;3.08;;;20.70;99.90;;;;;;6277107;22;20611;-73
2021/09/13 17:29:28;;;;;;;5.18;3.40;;;20.80;99.90;;;;;;6277538;22;20222;-73
2021/09/13 17:31:54;;;;;;;5.75;2.67;;;20.80;99.90;;;;;;6277339;22;20175;-73
2021/09/13 17:34:21;;;;;;;7.97;3.17;;;20.80;99.90;;;;;;6277818;22;20175;-73
2021/09/13 17:36:48;;;;;;;5.13;3.45;;;20.70;99.90;;;;;;6276748;22;20194;-73
2021/09/13 17:39:15;;;;;;;4.68;3.08;;;20.40;99.90;;;;;;6276676;22;20497;-73
2021/09/13 17:41:43;;;;;;;5.53;2.95;;;20.20;99.90;;;;;;6277208;22;20175;-73
2021/09/13 17:44:10;;;;;;;5.38;2.90;;;20.10;99.90;;;;;;6277245;22;20190;-73
2021/09/13 17:46:37;;;;;;;6.43;3.42;;;20.00;99.90;;;;;;6277233;22;20178;-73
2021/09/13 17:49:04;;;;;;;4.43;3.20;;;19.80;99.90;;;;;;6276962;22;20497;-73
2021/09/13 17:51:31;;;;;;;5.18;2.80;;;19.70;99.90;;;;;;6276811;22;20175;-73
2021/09/13 17:53:58;;;;;;;5.57;3.40;;;19.60;99.90;;;;;;6276865;22;20182;-73
2021/09/13 17:56:25;;;;;;;4.88;3.08;;;19.50;99.90;;;;;;6277304;22;20175;-73
2021/09/13 17:58:53;;;;;;;4.25;3.58;;;19.50;99.90;;;;;;6277317;22;20229;-73
2021/09/13 18:01:21;;;;;;;5.53;3.13;;;19.50;99.90;;;;;;6276820;22;20656;-73
2021/09/13 18:03:48;;;;;;;5.80;3.00;;;19.50;99.90;;;;;;6277269;22;20230;-74
2021/09/13 18:06:16;;;;;;;4.03;3.00;;;19.40;99.90;;;;;;6277250;22;20217;-72
2021/09/13 18:08:43;;;;;;;3.97;2.83;;;19.40;99.90;;;;;;6277110;22;20669;-72
2021/09/13 18:11:12;;;;;;;6.63;3.08;;;19.40;99.90;;;;;;6276354;22;20209;-72
2021/09/13 18:13:39;;;;;;;4.32;2.90;;;19.40;99.90;;;;;;6277252;22;20179;-71
2021/09/13 18:16:07;;;;;;;6.57;3.10;;;19.40;99.90;;;;;;6276787;22;20491;-71
2021/09/13 18:18:34;;;;;;;4.40;2.95;;;19.30;99.90;;;;;;6277366;22;20212;-71
2021/09/13 18:21:02;;;;;;;4.47;2.72;;;19.40;99.90;;;;;;6276321;22;20201;-71
2021/09/13 18:23:29;;;;;;;5.32;3.30;;;19.40;99.90;;;;;;6277195;22;20257;-72
2021/09/13 18:25:57;;;;;;;5.88;3.05;;;19.40;99.90;;;;;;6276307;22;20206;-72
2021/09/13 18:28:23;;;;;;;5.53;2.85;;;19.40;99.90;;;;;;6276312;22;20186;-71
2021/09/13 18:30:50;;;;;;;4.07;2.78;;;19.30;99.90;;;;;;6275771;22;20205;-71
2021/09/13 18:33:18;;;;;;;5.93;3.25;;;19.20;99.90;;;;;;6275800;22;20175;-71
2021/09/13 18:35:45;;;;;;;5.57;2.67;;;19.10;99.90;;;;;;6275681;22;20506;-71
2021/09/13 18:38:12;;;;;;;4.93;2.83;;;19.00;99.90;;;;;;6276033;22;20517;-72
2021/09/13 18:40:39;;;;;;;4.50;3.28;;;19.10;99.90;;;;;;6275702;22;20194;-72
2021/09/13 18:43:06;;;;;;;3.75;2.90;;;19.00;99.90;;;;;;6275826;22;20218;-72
2021/09/13 18:45:33;;;;;;;4.00;3.03;;;18.90;99.90;;;;;;6276015;22;20175;-72
2021/09/13 18:48:00;;;;;;;3.95;2.65;;;18.80;99.90;;;;;;6276122;22;20516;-71
2021/09/13 18:50:28;;;;;;;4.18;3.08;;;18.80;99.90;;;;;;6275977;22;20195;-72
2021/09/13 18:52:55;;;;;;;5.30;3.00;;;18.70;99.90;;;;;;6276001;22;20186;-71
2021/09/13 18:55:23;;;;;;;5.00;3.13;;;18.70;99.90;;;;;;6274933;22;20189;-71
